Time;durP1;ratioP1;P1;durP2;ratioP2;P2;SDS_P1;SDS_P2;PMS_P1;PMS_P2;Temp;Humidity;BMP_temperature;BMP_pressure;BME280_temperature;BME280_humidity;BME280_pressure;Samples;Min_cycle;Max_cycle;Signal;HPM_P1;HPM_P2
2022/06/23 00:01:01;;;;;;;0.00;0.00;;;15.60;99.90;;;;;;5000473;28;20441;-75
2022/06/23 00:03:34;;;;;;;0.00;0.00;;;15.60;99.90;;;;;;5000232;28;20524;-75
2022/06/23 00:06:06;;;;;;;0.00;0.00;;;15.50;99.90;;;;;;4999689;28;20540;-75
2022/06/23 00:08:43;;;;;;;0.00;0.00;;;15.50;99.90;;;;;;4999955;28;20631;-75
2022/06/23 00:11:23;;;;;;;0.00;0.00;;;15.50;99.90;;;;;;5000111;28;20450;-75
2022/06/23 00:13:54;;;;;;;0.00;0.00;;;15.50;99.90;;;;;;5001218;28;20446;-76
2022/06/23 00:16:25;;;;;;;0.00;0.00;;;15.50;99.90;;;;;;5000979;28;20458;-73
2022/06/23 00:18:54;;;;;;;0.00;0.00;;;15.50;99.90;;;;;;4999440;28;20453;-74
2022/06/23 00:21:25;;;;;;;0.00;0.00;;;15.40;99.90;;;;;;4999727;28;21197;-74
2022/06/23 00:23:59;;;;;;;0.00;0.00;;;15.40;99.90;;;;;;4999213;28;20456;-73
2022/06/23 00:26:31;;;;;;;0.00;0.00;;;15.40;99.90;;;;;;4999851;28;20462;-73
2022/06/23 00:29:02;;;;;;;0.00;0.00;;;15.30;99.90;;;;;;5000337;28;20504;-74
2022/06/23 00:31:32;;;;;;;0.00;0.00;;;15.30;99.90;;;;;;5000671;28;20513;-71
2022/06/23 00:34:03;;;;;;;0.00;0.00;;;15.30;99.90;;;;;;5000245;28;20478;-73
2022/06/23 00:36:36;;;;;;;0.00;0.00;;;15.30;99.90;;;;;;4999701;28;21074;-73
2022/06/23 00:39:06;;;;;;;0.00;0.00;;;15.30;99.90;;;;;;4999681;28;21121;-73
2022/06/23 00:41:38;;;;;;;0.00;0.00;;;15.20;99.90;;;;;;5000207;28;20455;-72
2022/06/23 00:44:15;;;;;;;0.00;0.00;;;15.20;99.90;;;;;;4999957;28;20446;-73
2022/06/23 00:46:47;;;;;;;0.00;0.00;;;15.20;99.90;;;;;;5001055;28;20491;-73
2022/06/23 00:49:31;;;;;;;0.00;0.00;;;15.20;99.90;;;;;;5001185;28;20481;-73
2022/06/23 00:52:10;;;;;;;0.00;0.00;;;15.20;99.90;;;;;;5001015;28;20453;-73
2022/06/23 00:54:44;;;;;;;0.00;0.00;;;15.10;99.90;;;;;;5000755;28;21118;-74
2022/06/23 00:57:25;;;;;;;0.00;0.00;;;15.10;99.90;;;;;;4999901;28;20457;-75
2022/06/23 00:59:58;;;;;;;0.00;0.00;;;15.10;99.90;;;;;;4999531;28;20445;-75
2022/06/23 01:02:33;;;;;;;0.00;0.00;;;15.00;99.90;;;;;;4998589;28;21118;-75
2022/06/23 01:05:04;;;;;;;0.00;0.00;;;15.00;99.90;;;;;;4999596;28;20657;-74
2022/06/23 01:07:41;;;;;;;0.00;0.00;;;15.10;99.90;;;;;;4998685;28;20549;-75
2022/06/23 01:10:20;;;;;;;0.00;0.00;;;15.00;99.90;;;;;;4998529;28;20489;-73
2022/06/23 01:12:58;;;;;;;0.00;0.00;;;14.90;99.90;;;;;;4999541;28;20632;-75
2022/06/23 01:15:32;;;;;;;0.00;0.00;;;14.90;99.90;;;;;;5000184;28;21097;-75
2022/06/23 01:18:07;;;;;;;0.00;0.00;;;14.90;99.90;;;;;;4999567;28;20427;-74
2022/06/23 01:20:45;;;;;;;0.00;0.00;;;14.80;99.90;;;;;;5000175;28;20551;-74
2022/06/23 01:23:40;;;;;;;0.00;0.00;;;14.80;99.90;;;;;;4999128;28;20452;-76
2022/06/23 01:26:27;;;;;;;0.00;0.00;;;14.80;99.90;;;;;;5000526;28;20464;-74
2022/06/23 01:29:03;;;;;;;0.00;0.00;;;14.80;99.90;;;;;;4999462;28;20484;-74
2022/06/23 01:31:42;;;;;;;0.00;0.00;;;14.80;99.90;;;;;;4998556;28;20434;-73
2022/06/23 01:34:20;;;;;;;0.00;0.00;;;14.70;99.90;;;;;;4998435;28;20445;-72
2022/06/23 01:36:55;;;;;;;0.00;0.00;;;14.70;99.90;;;;;;4999011;28;20482;-72
2022/06/23 01:39:28;;;;;;;0.00;0.00;;;14.70;99.90;;;;;;4999612;28;20444;-72
2022/06/23 01:42:00;;;;;;;0.00;0.00;;;14.70;99.90;;;;;;4998284;28;21104;-73
2022/06/23 01:44:45;;;;;;;0.00;0.00;;;14.70;99.90;;;;;;4998853;28;20442;-72
2022/06/23 01:47:21;;;;;;;0.00;0.00;;;14.70;99.90;;;;;;4999053;28;20503;-79
2022/06/23 01:49:56;;;;;;;0.00;0.00;;;14.60;99.90;;;;;;4998243;28;21200;-75
2022/06/23 01:52:24;;;;;;;0.00;0.00;;;14.60;99.90;;;;;;4998569;28;20441;-75
2022/06/23 01:54:57;;;;;;;0.00;0.00;;;14.60;99.90;;;;;;4998747;28;20430;-74
2022/06/23 01:57:32;;;;;;;0.00;0.00;;;14.60;99.90;;;;;;4999458;28;20457;-74
2022/06/23 02:00:13;;;;;;;0.00;0.00;;;14.60;99.90;;;;;;4999205;28;21137;-74
2022/06/23 02:02:55;;;;;;;0.00;0.00;;;14.60;99.90;;;;;;4999115;28;20442;-74
2022/06/23 02:05:33;;;;;;;0.00;0.00;;;14.60;99.90;;;;;;4999291;28;20986;-74
2022/06/23 02:08:09;;;;;;;0.00;0.00;;;14.60;99.90;;;;;;4998944;28;20457;-74
2022/06/23 02:10:45;;;;;;;0.00;0.00;;;14.60;99.90;;;;;;4998425;28;20511;-74
2022/06/23 02:13:20;;;;;;;0.00;0.00;;;14.60;99.90;;;;;;4997954;28;20548;-74
2022/06/23 02:15:58;;;;;;;0.00;0.00;;;14.60;99.90;;;;;;4998123;28;20445;-74
2022/06/23 02:23:54;;;;;;;0.00;0.00;;;14.60;99.90;;;;;;4962399;28;20507;-75
2022/06/23 02:26:27;;;;;;;0.00;0.00;;;14.60;99.90;;;;;;4958769;28;20467;-73
2022/06/23 02:29:02;;;;;;;0.00;0.00;;;14.70;99.90;;;;;;4959115;28;20452;-73
2022/06/23 02:31:39;;;;;;;0.00;0.00;;;14.70;99.90;;;;;;4959001;28;20513;-73
2022/06/23 02:34:15;;;;;;;0.00;0.00;;;14.70;99.90;;;;;;4959170;28;20475;-74
2022/06/23 02:37:03;;;;;;;0.00;0.00;;;14.70;99.90;;;;;;4958875;28;21013;-75
2022/06/23 02:39:38;;;;;;;0.00;0.00;;;14.70;99.90;;;;;;4958777;28;20442;-76
2022/06/23 02:42:19;;;;;;;0.00;0.00;;;14.60;99.90;;;;;;4961578;28;20447;-75
2022/06/23 02:45:01;;;;;;;0.00;0.00;;;14.60;99.90;;;;;;4962641;28;20438;-77
2022/06/23 02:47:47;;;;;;;0.00;0.00;;;14.70;99.90;;;;;;4962307;28;20467;-74
2022/06/23 02:50:39;;;;;;;0.00;0.00;;;14.70;99.90;;;;;;4963645;28;20479;-72
2022/06/23 02:53:27;;;;;;;0.00;0.00;;;14.70;99.90;;;;;;4963280;28;21164;-73
2022/06/23 02:56:17;;;;;;;0.00;0.00;;;14.60;99.90;;;;;;4962641;28;20627;-72
2022/06/23 02:58:50;;;;;;;0.00;0.00;;;14.60;99.90;;;;;;4962984;28;20450;-72
2022/06/23 03:01:24;;;;;;;0.00;0.00;;;14.60;99.90;;;;;;4962217;28;20515;-72
2022/06/23 03:04:01;;;;;;;0.00;0.00;;;14.60;99.90;;;;;;4962058;28;21093;-71
2022/06/23 03:06:35;;;;;;;0.00;0.00;;;14.60;99.90;;;;;;4962420;28;21010;-72
2022/06/23 03:09:07;;;;;;;0.00;0.00;;;14.60;99.90;;;;;;4962383;28;20456;-72
2022/06/23 03:11:55;;;;;;;0.00;0.00;;;14.60;99.90;;;;;;4961965;28;20479;-72
2022/06/23 03:14:37;;;;;;;0.00;0.00;;;14.60;99.90;;;;;;4962136;28;20627;-73
2022/06/23 03:17:14;;;;;;;0.00;0.00;;;14.70;99.90;;;;;;4961598;28;21209;-73
2022/06/23 03:19:50;;;;;;;0.00;0.00;;;14.70;99.90;;;;;;4962102;28;20431;-72
2022/06/23 03:22:22;;;;;;;0.00;0.00;;;14.60;99.90;;;;;;4961407;28;20454;-72
2022/06/23 03:24:57;;;;;;;0.00;0.00;;;14.60;99.90;;;;;;4961725;28;21062;-72
2022/06/23 03:27:30;;;;;;;0.00;0.00;;;14.60;99.90;;;;;;4961420;28;21008;-72
2022/06/23 03:30:01;;;;;;;0.00;0.00;;;14.70;99.90;;;;;;4961846;28;20471;-72
2022/06/23 03:32:33;;;;;;;0.00;0.00;;;14.60;99.90;;;;;;4961233;28;20442;-72
2022/06/23 03:35:15;;;;;;;0.00;0.00;;;14.60;99.90;;;;;;4961924;28;20456;-74
2022/06/23 03:37:50;;;;;;;0.00;0.00;;;14.60;99.90;;;;;;4961944;28;20554;-73
2022/06/23 03:43:18;;;;;;;0.00;0.00;;;14.70;99.90;;;;;;4963254;28;20459;-72
2022/06/23 03:45:51;;;;;;;0.00;0.00;;;14.70;99.90;;;;;;4961344;28;21168;-71
2022/06/23 03:48:26;;;;;;;0.00;0.00;;;14.60;99.90;;;;;;4961727;28;20436;-72
2022/06/23 03:51:06;;;;;;;0.00;0.00;;;14.70;99.90;;;;;;4961385;28;20479;-73
2022/06/23 03:53:44;;;;;;;0.00;0.00;;;14.70;99.90;;;;;;4961473;28;20544;-72
2022/06/23 03:56:19;;;;;;;0.00;0.00;;;14.70;99.90;;;;;;4961097;28;20845;-72
2022/06/23 03:58:56;;;;;;;0.00;0.00;;;14.80;99.90;;;;;;4961522;28;20510;-71
2022/06/23 04:01:30;;;;;;;0.00;0.00;;;14.80;99.90;;;;;;4961306;28;20439;-74
2022/06/23 04:04:13;;;;;;;0.00;0.00;;;14.90;99.90;;;;;;4961398;28;20506;-75
2022/06/23 04:06:48;;;;;;;0.00;0.00;;;14.90;99.90;;;;;;4961279;28;20558;-75
2022/06/23 04:09:19;;;;;;;0.00;0.00;;;14.90;99.90;;;;;;4961376;28;20450;-75
2022/06/23 04:11:57;;;;;;;0.00;0.00;;;15.00;99.90;;;;;;4960950;28;20482;-75
2022/06/23 04:14:41;;;;;;;0.00;0.00;;;15.00;99.90;;;;;;4961508;28;21016;-76
2022/06/23 04:17:16;;;;;;;0.00;0.00;;;15.10;99.90;;;;;;4960567;28;20470;-74
2022/06/23 04:19:47;;;;;;;0.00;0.00;;;15.10;99.90;;;;;;4961656;28;20423;-74
2022/06/23 04:22:23;;;;;;;0.00;0.00;;;15.20;99.90;;;;;;4960389;28;20463;-75
2022/06/23 04:24:54;;;;;;;0.00;0.00;;;15.20;99.90;;;;;;4960398;28;20664;-76
2022/06/23 04:27:27;;;;;;;0.00;0.00;;;15.20;99.90;;;;;;4963931;28;21242;-74
2022/06/23 04:29:58;;;;;;;0.00;0.00;;;15.20;99.90;;;;;;4960861;28;20494;-74
2022/06/23 04:32:29;;;;;;;0.00;0.00;;;15.40;99.90;;;;;;4960569;28;20442;-74
2022/06/23 04:35:01;;;;;;;0.00;0.00;;;15.40;99.90;;;;;;4960410;28;20925;-74
2022/06/23 04:37:37;;;;;;;0.00;0.00;;;15.40;99.90;;;;;;4960324;28;20575;-74
2022/06/23 04:40:22;;;;;;;0.00;0.00;;;15.50;99.90;;;;;;4960814;28;20443;-76
2022/06/23 04:42:57;;;;;;;0.00;0.00;;;15.60;99.90;;;;;;4960495;28;20428;-74
2022/06/23 04:45:48;;;;;;;0.00;0.00;;;15.60;99.90;;;;;;4965249;28;20676;-82
2022/06/23 04:48:24;;;;;;;0.00;0.00;;;15.60;99.90;;;;;;4966156;28;20471;-79
2022/06/23 04:50:57;;;;;;;0.00;0.00;;;15.70;99.90;;;;;;4970970;28;21006;-77
2022/06/23 04:53:44;;;;;;;0.00;0.00;;;15.70;99.90;;;;;;4965472;28;20412;-78
2022/06/23 04:56:22;;;;;;;0.00;0.00;;;15.80;99.90;;;;;;4961901;28;21155;-73
2022/06/23 04:58:53;;;;;;;0.00;0.00;;;15.90;99.90;;;;;;4951175;28;20545;-70
2022/06/23 05:01:26;;;;;;;0.00;0.00;;;16.10;99.90;;;;;;4957332;28;20459;-73
2022/06/23 05:03:58;;;;;;;0.00;0.00;;;16.10;99.90;;;;;;4960484;28;20444;-69
2022/06/23 05:06:36;;;;;;;0.00;0.00;;;16.10;99.90;;;;;;4959781;28;20479;-71
2022/06/23 05:09:11;;;;;;;0.00;0.00;;;16.20;99.90;;;;;;4948539;28;20454;-71
2022/06/23 05:11:44;;;;;;;0.00;0.00;;;16.30;99.90;;;;;;4961061;28;20484;-70
2022/06/23 05:14:20;;;;;;;0.00;0.00;;;16.40;99.90;;;;;;4946379;28;20453;-69
2022/06/23 05:16:52;;;;;;;0.00;0.00;;;16.50;99.90;;;;;;4946999;28;20478;-71
2022/06/23 05:19:26;;;;;;;0.00;0.00;;;16.60;99.90;;;;;;4959712;28;20967;-71
2022/06/23 05:21:58;;;;;;;0.00;0.00;;;16.60;99.90;;;;;;4958989;28;20445;-72
2022/06/23 05:24:29;;;;;;;0.00;0.00;;;16.80;99.90;;;;;;4958654;28;20467;-72
2022/06/23 05:27:01;;;;;;;0.00;0.00;;;16.90;99.90;;;;;;4942606;28;20466;-69
2022/06/23 05:29:35;;;;;;;0.00;0.00;;;17.00;99.90;;;;;;4953055;28;20541;-70
2022/06/23 05:32:12;;;;;;;0.00;0.00;;;17.40;99.90;;;;;;4953504;28;20504;-70
2022/06/23 05:34:51;;;;;;;0.00;0.00;;;17.80;99.90;;;;;;4958702;28;20465;-71
2022/06/23 05:37:25;;;;;;;0.00;0.00;;;18.20;99.90;;;;;;4959374;28;20466;-71
2022/06/23 05:40:07;;;;;;;0.00;0.00;;;18.30;99.90;;;;;;4947088;28;20457;-72
2022/06/23 05:42:41;;;;;;;0.00;0.00;;;18.30;99.90;;;;;;4953851;28;20477;-73
2022/06/23 05:45:22;;;;;;;0.00;0.00;;;18.20;99.90;;;;;;4944601;28;20451;-71
2022/06/23 05:47:51;;;;;;;0.00;0.00;;;18.10;99.90;;;;;;4958164;28;20477;-72
2022/06/23 05:50:24;;;;;;;0.00;0.00;;;18.00;99.90;;;;;;4947783;28;20476;-72
2022/06/23 05:52:57;;;;;;;0.00;0.00;;;18.00;99.90;;;;;;4953781;28;20489;-71
2022/06/23 05:55:34;;;;;;;0.00;0.00;;;17.90;99.90;;;;;;4959370;28;20449;-72
2022/06/23 05:58:10;;;;;;;0.00;0.00;;;17.90;99.90;;;;;;4963013;28;20461;-72
2022/06/23 06:00:47;;;;;;;0.00;0.00;;;18.00;99.90;;;;;;4962113;28;21020;-73
2022/06/23 06:03:20;;;;;;;0.00;0.00;;;18.00;99.90;;;;;;4957978;28;20549;-73
2022/06/23 06:05:52;;;;;;;0.00;0.00;;;18.10;99.90;;;;;;4958072;28;20441;-73
2022/06/23 06:08:24;;;;;;;0.00;0.00;;;18.10;99.90;;;;;;4957529;28;20511;-81
2022/06/23 06:10:54;;;;;;;0.00;0.00;;;18.20;99.90;;;;;;4958849;28;20462;-71
2022/06/23 06:13:27;;;;;;;0.00;0.00;;;18.20;99.90;;;;;;4959929;28;20438;-71
2022/06/23 06:15:57;;;;;;;0.00;0.00;;;18.30;99.90;;;;;;4955837;28;20550;-72
2022/06/23 06:18:29;;;;;;;0.00;0.00;;;18.40;99.90;;;;;;4962235;28;21099;-70
2022/06/23 06:21:00;;;;;;;0.00;0.00;;;18.40;99.90;;;;;;4960282;28;20659;-70
2022/06/23 06:23:38;;;;;;;0.00;0.00;;;18.40;99.90;;;;;;4959490;28;20461;-70
2022/06/23 06:26:11;;;;;;;0.00;0.00;;;18.50;99.90;;;;;;4955997;28;20476;-72
2022/06/23 06:28:39;;;;;;;0.00;0.00;;;18.50;99.90;;;;;;4958355;28;20463;-70
2022/06/23 06:31:14;;;;;;;0.00;0.00;;;18.60;99.90;;;;;;4950441;28;20461;-70
2022/06/23 06:33:57;;;;;;;0.00;0.00;;;18.60;99.90;;;;;;4959922;28;20509;-70
2022/06/23 06:36:31;;;;;;;0.00;0.00;;;18.80;99.90;;;;;;4957092;28;20513;-71
2022/06/23 06:39:08;;;;;;;0.00;0.00;;;18.90;99.90;;;;;;4970959;28;20518;-71
2022/06/23 06:41:40;;;;;;;0.00;0.00;;;19.00;99.90;;;;;;4969169;28;20474;-72
2022/06/23 06:44:12;;;;;;;0.00;0.00;;;19.10;99.90;;;;;;4961818;28;20458;-74
2022/06/23 06:46:41;;;;;;;0.00;0.00;;;19.20;99.90;;;;;;4963059;28;20463;-72
2022/06/23 06:49:15;;;;;;;0.00;0.00;;;19.30;99.90;;;;;;4965114;28;20436;-71
2022/06/23 06:51:43;;;;;;;0.00;0.00;;;19.30;99.90;;;;;;4964836;28;20514;-71
2022/06/23 06:54:16;;;;;;;0.00;0.00;;;19.40;99.90;;;;;;4960988;28;20834;-73
2022/06/23 06:56:49;;;;;;;0.00;0.00;;;19.40;99.90;;;;;;4960481;28;21201;-74
2022/06/23 06:59:25;;;;;;;0.00;0.00;;;19.50;99.90;;;;;;4959369;28;20442;-74
2022/06/23 07:01:57;;;;;;;0.00;0.00;;;19.60;99.90;;;;;;4958387;28;20432;-73
2022/06/23 07:04:31;;;;;;;0.00;0.00;;;19.70;99.90;;;;;;4960968;28;20491;-73
2022/06/23 07:07:04;;;;;;;0.00;0.00;;;19.80;99.90;;;;;;4961831;28;20451;-73
2022/06/23 07:09:38;;;;;;;0.00;0.00;;;19.80;99.90;;;;;;4961728;28;20531;-73
2022/06/23 07:12:13;;;;;;;0.00;0.00;;;20.00;99.90;;;;;;4961509;28;20475;-75
2022/06/23 07:14:46;;;;;;;0.00;0.00;;;20.10;99.90;;;;;;4961487;28;21133;-73
2022/06/23 07:17:20;;;;;;;0.00;0.00;;;20.20;99.90;;;;;;4959254;28;20547;-75
2022/06/23 07:19:52;;;;;;;0.00;0.00;;;20.20;99.90;;;;;;4961478;28;20447;-74
2022/06/23 07:22:26;;;;;;;0.00;0.00;;;20.20;99.90;;;;;;4961140;28;20444;-75
2022/06/23 07:25:02;;;;;;;0.00;0.00;;;20.20;99.90;;;;;;4959266;28;20472;-73
2022/06/23 07:27:35;;;;;;;0.00;0.00;;;20.40;99.90;;;;;;4957889;28;20543;-73
2022/06/23 07:30:06;;;;;;;0.00;0.00;;;20.50;99.90;;;;;;4961344;28;21027;-73
2022/06/23 07:32:41;;;;;;;0.00;0.00;;;20.60;99.90;;;;;;4958583;28;20507;-74
2022/06/23 07:35:19;;;;;;;0.00;0.00;;;20.70;99.90;;;;;;4960758;28;20951;-73
2022/06/23 07:37:54;;;;;;;0.00;0.00;;;20.70;99.90;;;;;;4961413;28;20997;-73
2022/06/23 07:40:24;;;;;;;0.00;0.00;;;20.80;99.90;;;;;;4963662;28;20991;-73
2022/06/23 07:43:02;;;;;;;0.00;0.00;;;20.90;99.90;;;;;;4964971;28;20444;-73
2022/06/23 07:45:34;;;;;;;0.00;0.00;;;20.90;99.90;;;;;;4963037;28;21155;-73
2022/06/23 07:48:03;;;;;;;0.00;0.00;;;21.10;99.90;;;;;;4970400;28;20547;-74
2022/06/23 07:50:31;;;;;;;0.00;0.00;;;21.20;99.90;;;;;;4965874;28;20983;-74
2022/06/23 07:53:00;;;;;;;0.00;0.00;;;21.20;99.90;;;;;;4966354;28;20483;-73
2022/06/23 07:55:32;;;;;;;0.00;0.00;;;21.30;99.90;;;;;;4961007;28;20538;-73
2022/06/23 07:58:22;;;;;;;0.00;0.00;;;21.40;99.90;;;;;;4960951;28;20535;-73
2022/06/23 08:01:01;;;;;;;0.00;0.00;;;21.50;99.90;;;;;;4966925;28;20447;-74
2022/06/23 08:03:37;;;;;;;0.00;0.00;;;21.60;99.90;;;;;;4962425;28;20870;-72
2022/06/23 08:06:09;;;;;;;0.00;0.00;;;21.70;99.90;;;;;;4960825;28;20478;-73
2022/06/23 08:08:39;;;;;;;0.00;0.00;;;21.80;99.90;;;;;;4960488;28;20445;-73
2022/06/23 08:14:25;;;;;;;0.00;0.00;;;22.00;99.90;;;;;;4951664;28;20479;-74
2022/06/23 08:16:53;;;;;;;0.00;0.00;;;22.00;99.90;;;;;;4948561;28;20491;-74
2022/06/23 08:19:29;;;;;;;0.00;0.00;;;22.00;99.90;;;;;;4952711;28;20894;-74
2022/06/23 08:22:04;;;;;;;0.00;0.00;;;22.10;99.90;;;;;;4954926;28;20537;-72
2022/06/23 08:24:33;;;;;;;0.00;0.00;;;22.20;99.90;;;;;;4950804;28;20663;-73
2022/06/23 08:27:06;;;;;;;0.00;0.00;;;22.30;99.90;;;;;;4941714;28;20474;-73
2022/06/23 08:29:39;;;;;;;0.00;0.00;;;22.30;99.90;;;;;;4957958;28;20457;-76
2022/06/23 08:32:08;;;;;;;0.00;0.00;;;22.30;99.90;;;;;;4959393;28;20945;-72
2022/06/23 08:34:40;;;;;;;0.00;0.00;;;22.40;99.90;;;;;;4960100;28;20530;-72
2022/06/23 08:37:15;;;;;;;0.00;0.00;;;22.50;99.90;;;;;;4956865;28;20469;-73
2022/06/23 08:39:51;;;;;;;0.00;0.00;;;22.60;99.90;;;;;;4966469;28;20541;-73
2022/06/23 08:42:25;;;;;;;0.00;0.00;;;22.70;99.90;;;;;;4955959;28;20464;-72
2022/06/23 08:45:02;;;;;;;0.00;0.00;;;22.80;99.90;;;;;;4941030;29;20448;-72
2022/06/23 08:47:41;;;;;;;0.00;0.00;;;22.90;99.90;;;;;;4940977;28;20550;-73
2022/06/23 08:50:17;;;;;;;0.00;0.00;;;23.00;99.90;;;;;;4950801;28;21085;-72
2022/06/23 08:52:50;;;;;;;0.00;0.00;;;23.10;99.90;;;;;;4959463;28;20471;-72
2022/06/23 08:55:26;;;;;;;0.00;0.00;;;23.20;99.90;;;;;;4954569;28;20471;-75
2022/06/23 08:58:21;;;;;;;0.00;0.00;;;23.30;99.90;;;;;;4957326;28;20440;-75
2022/06/23 09:00:57;;;;;;;0.00;0.00;;;23.30;99.90;;;;;;4960545;28;20524;-75
2022/06/23 09:03:36;;;;;;;0.00;0.00;;;23.40;99.90;;;;;;4960820;28;20526;-77
2022/06/23 09:06:13;;;;;;;0.00;0.00;;;23.50;99.90;;;;;;4959109;28;20951;-72
2022/06/23 09:08:54;;;;;;;0.00;0.00;;;23.60;99.90;;;;;;4941188;28;20479;-71
2022/06/23 09:11:34;;;;;;;0.00;0.00;;;23.60;99.90;;;;;;4945953;28;20460;-72
2022/06/23 09:14:25;;;;;;;0.00;0.00;;;23.70;99.90;;;;;;4952268;28;20496;-72
2022/06/23 09:17:13;;;;;;;0.00;0.00;;;23.80;99.90;;;;;;4947369;28;20486;-71
2022/06/23 09:19:54;;;;;;;0.00;0.00;;;23.90;99.90;;;;;;4940789;29;20440;-71
2022/06/23 09:22:41;;;;;;;0.00;0.00;;;23.80;99.90;;;;;;4940810;29;20475;-72
2022/06/23 09:25:17;;;;;;;0.00;0.00;;;23.90;99.90;;;;;;4945020;29;20515;-73
2022/06/23 09:28:10;;;;;;;0.00;0.00;;;24.00;99.90;;;;;;4940444;28;20479;-72
2022/06/23 09:30:42;;;;;;;0.00;0.00;;;24.10;99.90;;;;;;4958168;28;20447;-71
2022/06/23 09:33:22;;;;;;;0.00;0.00;;;24.10;99.90;;;;;;4958936;28;20516;-71
2022/06/23 09:36:22;;;;;;;0.00;0.00;;;24.20;99.90;;;;;;4953301;28;20455;-71
2022/06/23 09:39:32;;;;;;;0.00;0.00;;;24.20;99.90;;;;;;4940054;28;21016;-71
2022/06/23 09:42:25;;;;;;;0.00;0.00;;;24.30;99.90;;;;;;4939833;29;20450;-72
2022/06/23 09:45:11;;;;;;;0.00;0.00;;;24.40;99.90;;;;;;4940670;29;20531;-71
2022/06/23 09:48:17;;;;;;;0.00;0.00;;;24.50;99.90;;;;;;4940498;28;20461;-70
2022/06/23 09:51:22;;;;;;;0.00;0.00;;;24.60;99.90;;;;;;4944343;28;20478;-74
2022/06/23 09:54:31;;;;;;;0.00;0.00;;;24.70;99.90;;;;;;4945793;28;20918;-73
2022/06/23 09:57:32;;;;;;;0.00;0.00;;;24.70;99.90;;;;;;4948463;28;20466;-71
2022/06/23 10:00:08;;;;;;;0.00;0.00;;;24.80;99.90;;;;;;4933287;28;21021;-73
2022/06/23 10:02:52;;;;;;;0.00;0.00;;;24.80;99.90;;;;;;4963645;28;20444;-72
2022/06/23 10:05:33;;;;;;;0.00;0.00;;;24.80;99.90;;;;;;4965216;28;20505;-71
2022/06/23 10:08:20;;;;;;;0.00;0.00;;;25.00;99.90;;;;;;4964305;28;20435;-71
2022/06/23 10:11:13;;;;;;;0.00;0.00;;;25.00;99.90;;;;;;4963324;28;20463;-72
2022/06/23 10:14:00;;;;;;;0.00;0.00;;;25.20;99.90;;;;;;4963280;28;20558;-72
2022/06/23 10:16:51;;;;;;;0.00;0.00;;;25.20;99.90;;;;;;4968250;28;20471;-73
2022/06/23 10:19:51;;;;;;;0.00;0.00;;;25.30;99.90;;;;;;4976243;28;20458;-73
2022/06/23 10:22:37;;;;;;;0.00;0.00;;;25.30;99.90;;;;;;4965673;28;20439;-73
2022/06/23 10:25:32;;;;;;;0.00;0.00;;;25.50;99.90;;;;;;4959769;28;20578;-74
2022/06/23 10:28:21;;;;;;;0.00;0.00;;;25.50;99.90;;;;;;4943645;28;20566;-72
2022/06/23 10:30:56;;;;;;;0.00;0.00;;;25.50;99.90;;;;;;4963468;28;20440;-72
2022/06/23 10:33:49;;;;;;;0.00;0.00;;;25.60;99.90;;;;;;4960524;28;21247;-71
2022/06/23 10:36:35;;;;;;;0.00;0.00;;;25.60;99.90;;;;;;4945091;28;20570;-71
2022/06/23 10:39:16;;;;;;;0.00;0.00;;;25.70;99.90;;;;;;4956442;28;20471;-72
2022/06/23 10:42:09;;;;;;;0.00;0.00;;;25.90;99.90;;;;;;4962537;28;20464;-72
2022/06/23 10:45:08;;;;;;;0.00;0.00;;;25.90;99.90;;;;;;4961619;28;20440;-72
2022/06/23 10:47:51;;;;;;;0.00;0.00;;;25.90;99.90;;;;;;4963162;28;20492;-72
2022/06/23 10:50:37;;;;;;;0.00;0.00;;;26.00;99.90;;;;;;4945508;28;20544;-73
2022/06/23 10:54:12;;;;;;;0.00;0.00;;;26.00;99.90;;;;;;4943943;28;20515;-72
2022/06/23 10:56:52;;;;;;;0.00;0.00;;;26.00;99.90;;;;;;4943893;28;20534;-73
2022/06/23 10:59:39;;;;;;;0.00;0.00;;;26.10;99.90;;;;;;4945060;28;20525;-77
2022/06/23 11:02:29;;;;;;;0.00;0.00;;;26.10;99.90;;;;;;4942303;28;21185;-75
2022/06/23 11:05:25;;;;;;;0.00;0.00;;;26.20;99.90;;;;;;4961795;28;20442;-74
2022/06/23 11:08:04;;;;;;;0.00;0.00;;;26.30;99.90;;;;;;4963257;28;20477;-75
2022/06/23 11:10:49;;;;;;;0.00;0.00;;;26.40;99.90;;;;;;4964094;28;20484;-77
2022/06/23 11:13:26;;;;;;;0.00;0.00;;;26.50;99.90;;;;;;4962865;28;20441;-75
2022/06/23 11:16:05;;;;;;;0.00;0.00;;;26.50;99.90;;;;;;4962452;28;20437;-75
2022/06/23 11:18:51;;;;;;;0.00;0.00;;;26.60;99.90;;;;;;4961176;28;20489;-74
2022/06/23 11:21:48;;;;;;;0.00;0.00;;;26.60;99.90;;;;;;4960630;28;20460;-74
2022/06/23 11:24:26;;;;;;;0.00;0.00;;;26.70;99.90;;;;;;4960453;28;20458;-74
2022/06/23 11:27:06;;;;;;;0.00;0.00;;;26.80;99.90;;;;;;4961312;28;20468;-74
2022/06/23 11:29:58;;;;;;;0.00;0.00;;;26.80;99.90;;;;;;4960688;28;20443;-75
2022/06/23 11:32:39;;;;;;;0.00;0.00;;;26.80;99.90;;;;;;4961589;28;20449;-75
2022/06/23 11:35:26;;;;;;;0.00;0.00;;;26.90;99.90;;;;;;4963376;28;20581;-76
2022/06/23 11:38:10;;;;;;;0.00;0.00;;;26.90;99.90;;;;;;4963407;28;20483;-74
2022/06/23 11:41:00;;;;;;;0.00;0.00;;;27.00;99.90;;;;;;4943347;29;20532;-73
2022/06/23 11:43:42;;;;;;;0.00;0.00;;;27.00;99.90;;;;;;4943583;29;20446;-74
2022/06/23 11:46:24;;;;;;;0.00;0.00;;;27.10;99.90;;;;;;4942106;28;20464;-73
2022/06/23 11:49:13;;;;;;;0.00;0.00;;;27.20;99.90;;;;;;4942293;28;21010;-73
2022/06/23 11:52:15;;;;;;;0.00;0.00;;;27.20;99.90;;;;;;4941412;29;20450;-75
2022/06/23 11:55:12;;;;;;;0.00;0.00;;;27.20;99.90;;;;;;4935174;29;20496;-73
2022/06/23 11:57:59;;;;;;;0.00;0.00;;;27.30;99.90;;;;;;4941652;28;20520;-74
2022/06/23 12:00:38;;;;;;;0.00;0.00;;;27.30;99.80;;;;;;4941663;28;21014;-73
2022/06/23 12:03:24;;;;;;;0.00;0.00;;;27.30;99.70;;;;;;4948188;28;20537;-73
2022/06/23 12:06:07;;;;;;;0.00;0.00;;;27.20;99.80;;;;;;4960809;28;20438;-74
2022/06/23 12:08:52;;;;;;;0.00;0.00;;;27.30;99.90;;;;;;4953289;28;20541;-73
2022/06/23 12:11:20;;;;;;;0.00;0.00;;;27.30;99.50;;;;;;4958165;28;20450;-73
2022/06/23 12:13:48;;;;;;;0.00;0.00;;;27.40;99.90;;;;;;4940918;28;20445;-73
2022/06/23 12:16:17;;;;;;;0.00;0.00;;;27.50;99.90;;;;;;4947947;28;20476;-73
2022/06/23 12:18:49;;;;;;;0.00;0.00;;;27.50;98.70;;;;;;4959272;28;20513;-74
2022/06/23 12:21:30;;;;;;;0.00;0.00;;;27.40;97.30;;;;;;4960038;28;20451;-73
2022/06/23 12:24:07;;;;;;;0.00;0.00;;;27.40;97.20;;;;;;4961479;28;21136;-74
2022/06/23 12:26:41;;;;;;;0.00;0.00;;;27.50;97.70;;;;;;4961000;28;21060;-70
2022/06/23 12:29:15;;;;;;;0.00;0.00;;;27.60;97.90;;;;;;4959199;28;20448;-73
2022/06/23 12:31:50;;;;;;;0.00;0.00;;;27.70;97.80;;;;;;4960244;28;20479;-70
2022/06/23 12:34:28;;;;;;;0.00;0.00;;;27.80;97.70;;;;;;4959023;28;20536;-78
2022/06/23 12:37:08;;;;;;;0.00;0.00;;;27.90;97.40;;;;;;4959327;28;20473;-72
2022/06/23 12:39:44;;;;;;;0.00;0.00;;;27.90;97.50;;;;;;4949651;28;20442;-72
2022/06/23 12:42:18;;;;;;;0.00;0.00;;;28.00;97.70;;;;;;4953607;28;20443;-72
2022/06/23 12:44:59;;;;;;;0.00;0.00;;;28.10;97.60;;;;;;4958867;28;20511;-72
2022/06/23 12:47:36;;;;;;;0.00;0.00;;;28.10;97.30;;;;;;4959459;28;20474;-72
2022/06/23 12:50:21;;;;;;;0.00;0.00;;;28.10;97.10;;;;;;4955058;28;20453;-72
2022/06/23 12:53:00;;;;;;;0.00;0.00;;;28.10;97.30;;;;;;4947931;28;20570;-72
2022/06/23 12:55:44;;;;;;;0.00;0.00;;;28.10;97.50;;;;;;4958325;28;20560;-72
2022/06/23 12:58:23;;;;;;;0.00;0.00;;;28.10;97.30;;;;;;4958885;28;20941;-71
2022/06/23 13:01:02;;;;;;;0.00;0.00;;;28.20;97.20;;;;;;4959600;28;20493;-72
2022/06/23 13:03:35;;;;;;;0.00;0.00;;;28.20;97.40;;;;;;4960042;28;20512;-70
2022/06/23 13:06:16;;;;;;;0.00;0.00;;;28.20;97.40;;;;;;4959675;28;20469;-71
2022/06/23 13:08:56;;;;;;;0.00;0.00;;;28.20;97.80;;;;;;4946361;28;21001;-71
2022/06/23 13:11:31;;;;;;;0.00;0.00;;;28.30;97.80;;;;;;4945994;28;21094;-73
2022/06/23 13:14:06;;;;;;;0.00;0.00;;;28.30;97.40;;;;;;4959176;28;20437;-71
2022/06/23 13:16:43;;;;;;;0.00;0.00;;;28.30;97.50;;;;;;4959431;28;20528;-71
2022/06/23 13:19:17;;;;;;;0.00;0.00;;;28.40;97.30;;;;;;4959525;28;20454;-71
2022/06/23 13:21:46;;;;;;;0.00;0.00;;;28.40;97.20;;;;;;4959715;28;20462;-71
2022/06/23 13:24:18;;;;;;;0.00;0.00;;;28.50;97.60;;;;;;4953994;28;20464;-71
2022/06/23 13:27:03;;;;;;;0.00;0.00;;;28.50;96.60;;;;;;4956935;28;20935;-72
2022/06/23 13:29:37;;;;;;;0.00;0.00;;;28.50;96.70;;;;;;4959092;28;20492;-72
2022/06/23 13:32:12;;;;;;;0.00;0.00;;;28.50;96.70;;;;;;4959374;28;21160;-74
2022/06/23 13:34:50;;;;;;;0.00;0.00;;;28.60;96.80;;;;;;4958227;28;20465;-72
2022/06/23 13:37:24;;;;;;;0.00;0.00;;;28.60;96.70;;;;;;4947139;28;20473;-73
2022/06/23 13:39:59;;;;;;;0.00;0.00;;;28.60;97.10;;;;;;4952254;28;20448;-71
2022/06/23 13:42:32;;;;;;;0.00;0.00;;;28.60;97.10;;;;;;4940714;28;20451;-71
2022/06/23 13:45:06;;;;;;;0.00;0.00;;;28.60;97.40;;;;;;4940038;28;20549;-71
2022/06/23 13:47:38;;;;;;;0.00;0.00;;;28.60;97.70;;;;;;4945907;28;20898;-72
2022/06/23 13:50:16;;;;;;;0.00;0.00;;;28.60;97.10;;;;;;4948519;28;20447;-72
2022/06/23 13:52:52;;;;;;;0.00;0.00;;;28.60;97.20;;;;;;4957058;28;21018;-72
2022/06/23 13:55:25;;;;;;;0.00;0.00;;;28.60;96.90;;;;;;4958865;28;20482;-71